createdAt,value
2017-04-03T16:10:17.572Z,24.15
2017-04-03T16:11:17.380Z,22.73
2017-04-03T16:12:17.144Z,25.27
2017-04-03T16:13:17.823Z,21.47
2017-04-03T16:14:17.580Z,24.35
2017-04-03T16:15:16.669Z,23.65
2017-04-03T16:16:16.412Z,22.43
2017-04-03T16:17:16.121Z,22.27
2017-04-03T16:18:15.800Z,24.43
2017-04-03T16:19:15.548Z,23.73
2017-04-03T16:20:15.993Z,22.87
2017-04-03T16:21:16.071Z,22.52
2017-04-03T16:22:16.513Z,21.73
2017-04-03T16:23:16.248Z,20.05
2017-04-03T16:24:15.978Z,21.18
2017-04-03T16:25:16.527Z,22.18
2017-04-03T16:26:16.242Z,21.67
2017-04-03T16:27:16.016Z,22.85
2017-04-03T16:28:15.815Z,22.02
2017-04-03T16:29:15.549Z,23.02
2017-04-03T16:30:15.341Z,21.77
2017-04-03T16:31:15.076Z,22.18
2017-04-03T16:32:14.861Z,20.18
2017-04-03T16:33:14.510Z,21.15
2017-04-03T16:34:14.269Z,20.38
2017-04-03T16:35:13.965Z,21.50
2017-04-03T16:36:13.653Z,22.40
2017-04-03T16:37:13.332Z,20.58
2017-04-03T16:38:13.022Z,21.20
2017-04-03T16:39:12.689Z,22.32
2017-04-03T16:40:12.419Z,22.92
2017-04-03T16:41:12.155Z,21.90
2017-04-03T16:42:11.901Z,22.15
2017-04-03T16:43:11.564Z,20.87
2017-04-03T16:44:11.277Z,20.82
2017-04-03T16:45:10.973Z,19.78
2017-04-03T16:46:10.711Z,24.30
2017-04-03T16:47:10.405Z,23.88
2017-04-03T16:48:10.160Z,22.00
2017-04-03T16:49:09.864Z,24.35
2017-04-03T16:50:09.553Z,20.27
2017-04-03T16:51:09.328Z,22.48
2017-04-03T16:52:08.979Z,21.40
2017-04-03T16:53:09.976Z,22.72
2017-04-03T16:54:09.645Z,23.93
2017-04-03T16:55:09.406Z,20.88
2017-04-03T16:56:09.080Z,22.55
2017-04-03T16:57:08.757Z,21.52
2017-04-03T16:58:08.578Z,21.43
2017-04-03T16:59:08.418Z,19.80
2017-04-03T17:00:08.398Z,20.77
2017-04-03T17:01:08.552Z,21.30
2017-04-03T17:02:08.241Z,20.88
2017-04-03T17:03:08.192Z,21.97
2017-04-03T17:04:07.959Z,22.10
2017-04-03T17:05:08.458Z,18.83
2017-04-03T17:06:08.679Z,17.82
2017-04-03T17:07:09.417Z,21.57
2017-04-03T17:08:09.191Z,21.97
2017-04-03T17:09:09.196Z,21.78
2017-04-03T17:10:09.056Z,20.60
2017-04-03T17:11:08.847Z,20.95
2017-04-03T17:12:08.601Z,19.73
2017-04-03T17:13:08.419Z,22.03
2017-04-03T17:14:08.101Z,22.85
2017-04-03T17:15:08.663Z,20.98
2017-04-03T17:16:08.334Z,22.82
2017-04-03T17:17:08.063Z,20.77
2017-04-03T17:18:07.738Z,22.25
2017-04-03T17:19:07.864Z,20.63
2017-04-03T17:20:07.732Z,21.35
2017-04-03T17:21:07.542Z,20.73
2017-04-03T17:22:07.733Z,20.75
2017-04-03T17:23:07.732Z,19.92
2017-04-03T17:24:08.238Z,20.90
2017-04-03T17:25:08.716Z,19.85
2017-04-03T17:26:08.828Z,18.33
2017-04-03T17:27:09.993Z,21.85
2017-04-03T17:28:10.536Z,20.85
2017-04-03T17:29:10.321Z,21.55
2017-04-03T17:30:10.765Z,20.47
2017-04-03T17:31:10.561Z,15.37
2017-04-03T17:32:10.978Z,18.00
2017-04-03T17:33:10.687Z,19.35
2017-04-03T17:34:10.403Z,18.43
2017-04-03T17:35:10.089Z,16.63
2017-04-03T17:36:09.844Z,16.23
2017-04-03T17:37:10.365Z,22.85
2017-04-03T17:38:10.887Z,16.53
2017-04-03T17:39:10.618Z,14.60
2017-04-03T17:40:11.370Z,16.83
2017-04-03T17:41:11.578Z,14.10
2017-04-03T17:42:13.896Z,15.17
2017-04-03T17:43:16.951Z,15.37
2017-04-03T17:44:17.405Z,14.77
2017-04-03T17:45:17.153Z,15.82
2017-04-03T17:46:16.891Z,18.18
2017-04-03T17:47:16.688Z,18.15
2017-04-03T17:48:16.365Z,16.23
2017-04-03T17:49:16.183Z,15.58
2017-04-03T17:50:15.888Z,16.22
2017-04-03T17:51:15.862Z,15.38
2017-04-03T17:52:16.517Z,16.05
2017-04-03T17:53:16.278Z,17.00
2017-04-03T17:54:15.977Z,19.22
2017-04-03T17:55:15.653Z,23.27
2017-04-03T17:56:15.374Z,23.90
2017-04-03T17:57:15.109Z,21.25
2017-04-03T17:58:14.949Z,20.67
2017-04-03T17:59:14.731Z,20.27
2017-04-03T18:00:14.487Z,20.23
2017-04-03T18:01:15.057Z,19.37
2017-04-03T18:02:14.841Z,19.60
2017-04-03T18:03:14.554Z,17.75
2017-04-03T18:04:14.272Z,14.40
2017-04-03T18:05:14.055Z,15.60
2017-04-03T18:06:13.918Z,16.67
2017-04-03T18:07:14.338Z,15.73
2017-04-03T18:08:14.773Z,15.72
2017-04-03T18:09:15.259Z,13.48
2017-04-03T18:10:15.781Z,14.85
2017-04-03T18:11:15.516Z,15.97
2017-04-03T18:12:20.654Z,15.15
2017-04-03T18:13:21.096Z,14.28
2017-04-03T18:14:20.917Z,15.20
2017-04-03T18:15:21.547Z,17.75
2017-04-03T18:16:21.346Z,18.95
2017-04-03T18:17:21.750Z,18.40
2017-04-03T18:18:22.202Z,17.63
2017-04-03T18:19:21.952Z,16.30
2017-04-03T18:20:21.637Z,17.08
2017-04-03T18:21:21.326Z,15.62
2017-04-03T18:22:20.999Z,16.83
2017-04-03T18:23:20.653Z,16.15
2017-04-03T18:24:20.292Z,18.27
2017-04-03T18:25:19.999Z,17.13
2017-04-03T18:26:19.694Z,15.57
2017-04-03T18:27:19.381Z,18.57
2017-04-03T18:28:19.921Z,17.82
2017-04-03T18:29:20.473Z,18.82
2017-04-03T18:30:21.014Z,17.90
2017-04-03T18:31:21.508Z,19.17
2017-04-03T18:32:21.831Z,17.62
2017-04-03T18:33:22.411Z,19.70
2017-04-03T18:34:22.890Z,18.85
2017-04-03T18:35:22.673Z,19.73
2017-04-03T18:36:23.161Z,20.70
2017-04-03T18:37:22.882Z,20.80
2017-04-03T18:38:22.585Z,20.05
2017-04-03T18:39:22.279Z,20.70
2017-04-03T18:40:22.073Z,20.83
2017-04-03T18:41:21.808Z,18.38
2017-04-03T18:42:22.573Z,21.75
2017-04-03T18:43:22.344Z,21.05
2017-04-03T18:44:22.470Z,21.97
2017-04-03T18:45:22.244Z,23.50
2017-04-03T18:46:21.993Z,25.03
2017-04-03T18:47:21.864Z,26.22
2017-04-03T18:48:21.637Z,24.75
2017-04-03T18:49:21.393Z,26.47
2017-04-03T18:50:21.150Z,27.82
2017-04-03T18:51:20.933Z,27.20
2017-04-03T18:52:20.753Z,26.07
2017-04-03T18:53:20.485Z,26.77
2017-04-03T18:54:20.249Z,29.25
2017-04-03T18:55:19.910Z,26.90
2017-04-03T18:56:19.637Z,28.82
2017-04-03T18:57:20.146Z,29.78
2017-04-03T18:58:21.419Z,28.00
2017-04-03T18:59:21.318Z,28.05
2017-04-03T19:00:21.010Z,29.37
2017-04-03T19:01:20.773Z,27.87
2017-04-03T19:02:20.537Z,26.95
2017-04-03T19:03:20.320Z,29.70
2017-04-03T19:04:20.195Z,26.07
2017-04-03T19:05:20.726Z,29.32
2017-04-03T19:06:20.403Z,27.38
2017-04-03T19:07:20.922Z,31.42
2017-04-03T19:08:21.497Z,28.78
2017-04-03T19:09:21.515Z,26.80
2017-04-03T19:10:25.408Z,27.25
2017-04-03T19:11:25.075Z,29.17
2017-04-03T19:12:24.841Z,28.55
2017-04-03T19:13:24.557Z,28.22
2017-04-03T19:14:24.228Z,28.23
2017-04-03T19:15:25.093Z,27.10
2017-04-03T19:16:24.801Z,27.55
2017-04-03T19:17:24.802Z,26.77
2017-04-03T19:18:24.544Z,26.82
2017-04-03T19:19:24.197Z,27.88
2017-04-03T19:20:23.892Z,30.17
2017-04-03T19:21:23.725Z,27.88
2017-04-03T19:22:23.443Z,30.73
2017-04-03T19:23:23.201Z,27.83
2017-04-03T19:24:22.880Z,29.57
2017-04-03T19:25:22.641Z,27.67
2017-04-03T19:26:22.360Z,29.67
2017-04-03T19:27:22.058Z,31.25
2017-04-03T19:28:22.541Z,27.12
2017-04-03T19:29:22.377Z,27.12
2017-04-03T19:30:22.899Z,29.20
2017-04-03T19:31:29.791Z,29.18
2017-04-03T19:32:37.349Z,28.10
2017-04-03T19:33:40.190Z,27.83
2017-04-03T19:34:57.717Z,28.50
2017-04-03T19:36:01.225Z,28.73
2017-04-03T19:37:11.138Z,28.70
2017-04-03T19:38:15.524Z,29.10
2017-04-03T19:39:21.149Z,27.60
2017-04-03T19:40:29.455Z,30.08
2017-04-03T19:41:36.511Z,30.72
2017-04-03T19:42:45.864Z,31.78
2017-04-03T19:43:51.922Z,39.08
2017-04-03T19:45:00.635Z,45.18
2017-04-03T19:46:07.021Z,42.73
2017-04-03T19:47:18.995Z,39.63
2017-04-03T19:48:28.211Z,38.47
2017-04-03T19:49:35.093Z,38.08
2017-04-03T19:50:35.208Z,43.47
2017-04-03T19:51:34.986Z,44.85
2017-04-03T19:52:34.752Z,43.78
2017-04-03T19:53:34.504Z,42.35
2017-04-03T19:54:35.045Z,41.60
2017-04-03T19:55:34.981Z,38.38
2017-04-03T19:56:34.714Z,37.45
2017-04-03T19:57:35.186Z,41.55
2017-04-03T19:58:34.970Z,44.62
2017-04-03T19:59:34.793Z,45.83
2017-04-03T20:00:34.660Z,42.85
2017-04-03T20:01:34.474Z,44.85
2017-04-03T20:02:34.531Z,43.25
2017-04-03T20:03:34.992Z,40.62
2017-04-03T20:04:35.084Z,40.80
2017-04-03T20:05:34.996Z,40.27
2017-04-03T20:06:34.662Z,36.02
2017-04-03T20:07:34.291Z,35.67
2017-04-03T20:08:33.940Z,35.72
2017-04-03T20:09:43.128Z,34.53
2017-04-03T20:10:44.706Z,35.47
2017-04-03T20:11:44.472Z,33.13
2017-04-03T20:12:44.294Z,33.13
2017-04-03T20:13:44.012Z,32.47
2017-04-03T20:14:43.740Z,32.38
2017-04-03T20:15:43.545Z,33.38
2017-04-03T20:16:43.721Z,31.37
2017-04-03T20:17:43.955Z,33.67
2017-04-03T20:18:45.065Z,30.38
2017-04-03T20:19:45.536Z,33.90
2017-04-03T20:20:45.422Z,34.92
2017-04-03T20:21:45.730Z,32.82
2017-04-03T20:22:45.531Z,30.73
2017-04-03T20:23:46.058Z,33.22
2017-04-03T20:24:46.846Z,31.62
2017-04-03T20:25:48.040Z,34.47
2017-04-03T20:26:47.979Z,31.50
2017-04-03T20:27:47.765Z,35.78
2017-04-03T20:28:51.397Z,35.67
2017-04-03T20:29:51.162Z,33.38
2017-04-03T20:30:50.946Z,34.93
2017-04-03T20:31:50.698Z,35.60
2017-04-03T20:32:50.437Z,34.92
2017-04-03T20:33:50.365Z,33.33
2017-04-03T20:34:50.161Z,34.73
2017-04-03T20:35:50.077Z,35.75
2017-04-03T20:36:49.917Z,31.42
2017-04-03T20:37:49.816Z,34.17
2017-04-03T20:38:49.959Z,31.95
2017-04-03T20:39:50.535Z,32.00
2017-04-03T20:40:50.252Z,32.47
2017-04-03T20:41:49.925Z,31.23
2017-04-03T20:44:00.478Z,26.70
2017-04-03T20:45:00.259Z,29.28
2017-04-03T20:45:59.957Z,27.10
2017-04-03T20:46:59.671Z,26.53
2017-04-03T20:47:59.453Z,29.10
2017-04-03T20:48:59.228Z,27.88
2017-04-03T20:49:58.997Z,29.68
2017-04-03T20:50:58.690Z,27.78
2017-04-03T20:51:59.148Z,25.67
2017-04-03T20:52:58.871Z,25.45
2017-04-03T20:53:58.647Z,27.38
2017-04-03T20:54:58.458Z,24.58
2017-04-03T20:56:01.364Z,25.23
2017-04-03T20:57:01.116Z,24.58
2017-04-03T20:58:00.913Z,22.55
2017-04-03T20:59:00.744Z,24.15
2017-04-03T21:00:00.451Z,24.33
2017-04-03T21:01:00.172Z,25.28
2017-04-03T21:02:00.569Z,25.65
2017-04-03T21:03:00.364Z,26.17
2017-04-03T21:04:00.133Z,25.92
2017-04-03T21:04:59.854Z,26.32
2017-04-03T21:05:59.595Z,26.32
2017-04-03T21:06:59.310Z,25.47
2017-04-03T21:07:59.083Z,25.72
2017-04-03T21:08:58.885Z,27.07
2017-04-03T21:09:59.418Z,24.43
2017-04-03T21:10:59.159Z,26.45
2017-04-03T21:11:58.911Z,25.12
2017-04-03T21:12:58.605Z,24.22
2017-04-03T21:13:58.352Z,27.68
2017-04-03T21:14:58.874Z,24.50
2017-04-03T21:15:58.650Z,26.72
2017-04-03T21:16:58.360Z,27.47
2017-04-03T21:17:58.849Z,24.47
2017-04-03T21:18:58.659Z,22.97
2017-04-03T21:19:58.474Z,24.63
2017-04-03T21:20:58.226Z,24.03
2017-04-03T21:21:57.981Z,22.57
2017-04-03T21:22:57.726Z,24.60
2017-04-03T21:23:57.452Z,23.18
2017-04-03T21:24:57.204Z,23.20
2017-04-03T21:25:56.919Z,23.68
2017-04-03T21:26:56.727Z,23.85
2017-04-03T21:27:56.486Z,25.02
2017-04-03T21:28:56.241Z,26.57
2017-04-03T21:29:56.779Z,26.17
2017-04-03T21:30:56.571Z,25.58
2017-04-03T21:31:56.358Z,24.43
2017-04-03T21:32:56.857Z,25.15
2017-04-03T21:33:56.587Z,23.22
2017-04-03T21:34:56.289Z,25.00
2017-04-03T21:35:55.969Z,22.62
2017-04-03T21:36:55.656Z,22.60
2017-04-03T21:37:55.356Z,24.60
2017-04-03T21:38:55.767Z,22.63
2017-04-03T21:39:55.642Z,23.45
2017-04-03T21:40:55.327Z,23.68
2017-04-03T21:41:55.013Z,23.80
2017-04-03T21:42:54.648Z,25.25
2017-04-03T21:43:54.377Z,27.05
2017-04-03T21:44:54.755Z,26.38
2017-04-03T21:45:54.478Z,25.48
2017-04-03T21:46:54.143Z,24.65
2017-04-03T21:47:53.821Z,24.33
2017-04-03T21:48:53.511Z,22.53
2017-04-03T21:49:53.215Z,26.17
2017-04-03T21:50:52.951Z,26.22
2017-04-03T21:51:52.622Z,23.58
2017-04-03T21:52:53.012Z,24.43
2017-04-03T21:53:52.665Z,24.12
2017-04-03T21:54:52.372Z,26.78
2017-04-03T21:55:52.105Z,24.13
2017-04-03T21:56:52.497Z,24.80
2017-04-03T21:57:52.158Z,26.05
2017-04-03T21:58:51.829Z,27.05
2017-04-03T21:59:51.514Z,23.72
2017-04-03T22:00:51.191Z,26.67
2017-04-03T22:01:50.969Z,25.65
2017-04-03T22:02:50.661Z,25.95
2017-04-03T22:03:50.356Z,25.37
2017-04-03T22:04:50.777Z,23.12
2017-04-03T22:05:50.477Z,24.73
2017-04-03T22:06:50.134Z,25.15
2017-04-03T22:07:49.917Z,24.75
2017-04-03T22:08:50.385Z,24.67
2017-04-03T22:09:50.145Z,25.13
2017-04-03T22:10:49.873Z,23.82
2017-04-03T22:11:49.528Z,25.05
2017-04-03T22:12:50.018Z,25.17
2017-04-03T22:13:49.800Z,24.62
2017-04-03T22:14:49.580Z,24.05
2017-04-03T22:15:49.362Z,22.22
2017-04-03T22:16:49.046Z,25.53
2017-04-03T22:17:49.456Z,24.75
2017-04-03T22:18:50.020Z,23.92
2017-04-03T22:19:49.769Z,24.42
2017-04-03T22:20:49.532Z,24.73
2017-04-03T22:21:49.278Z,23.25
2017-04-03T22:22:49.745Z,22.95
2017-04-03T22:23:49.521Z,23.67
2017-04-03T22:24:49.276Z,22.32
2017-04-03T22:25:49.062Z,22.77
2017-04-03T22:26:48.862Z,21.58
2017-04-03T22:27:48.552Z,23.72
2017-04-03T22:28:48.308Z,22.38
2017-04-03T22:29:48.046Z,23.45
2017-04-03T22:30:47.887Z,22.60
2017-04-03T22:31:47.554Z,21.52
2017-04-03T22:32:47.260Z,20.68
2017-04-03T22:33:46.902Z,22.02
2017-04-03T22:34:46.612Z,21.47
2017-04-03T22:35:46.354Z,22.45
2017-04-03T22:36:46.142Z,23.70
2017-04-03T22:37:45.879Z,22.62
2017-04-03T22:38:45.544Z,21.45
2017-04-03T22:39:45.198Z,20.55
2017-04-03T22:40:44.923Z,20.03
2017-04-03T22:41:44.625Z,21.88
2017-04-03T22:42:44.336Z,20.67
2017-04-03T22:43:44.027Z,22.83
2017-04-03T22:44:43.871Z,24.38
2017-04-03T22:45:43.562Z,23.72
2017-04-03T22:46:43.277Z,26.18
2017-04-03T22:47:43.810Z,22.98
2017-04-03T22:48:43.531Z,21.55
2017-04-03T22:49:43.181Z,21.60
2017-04-03T22:50:42.932Z,23.27
2017-04-03T22:51:42.643Z,20.70
2017-04-03T22:52:42.366Z,21.12
2017-04-03T22:53:42.098Z,21.35
2017-04-03T22:54:42.552Z,24.80
2017-04-03T22:55:42.292Z,24.58
2017-04-03T22:56:41.992Z,23.43
2017-04-03T22:57:42.446Z,23.47
2017-04-03T22:58:42.245Z,23.05
2017-04-03T22:59:41.995Z,22.45
2017-04-03T23:00:41.781Z,21.77
2017-04-03T23:01:41.585Z,21.82
2017-04-03T23:02:41.372Z,21.97
2017-04-03T23:03:41.171Z,23.90
2017-04-03T23:04:40.920Z,25.20
2017-04-03T23:05:41.401Z,22.48
2017-04-03T23:06:41.158Z,24.05
2017-04-03T23:07:40.869Z,23.62
2017-04-03T23:08:40.669Z,23.23
2017-04-03T23:09:40.457Z,25.33
2017-04-03T23:10:40.241Z,23.08
2017-04-03T23:11:39.952Z,27.48
2017-04-03T23:12:39.650Z,21.78
2017-04-03T23:13:39.438Z,24.05
2017-04-03T23:14:39.188Z,23.98
2017-04-03T23:15:38.917Z,22.82
2017-04-03T23:16:38.800Z,26.63
2017-04-03T23:17:38.514Z,25.42
2017-04-03T23:18:38.189Z,25.63
2017-04-03T23:19:37.894Z,23.37
2017-04-03T23:20:37.618Z,24.12
2017-04-03T23:21:37.321Z,24.05
2017-04-03T23:22:37.081Z,24.85
2017-04-03T23:23:36.774Z,26.37
2017-04-03T23:24:36.464Z,25.72
2017-04-03T23:25:36.288Z,23.38
2017-04-03T23:26:36.017Z,28.83
2017-04-03T23:27:35.770Z,26.63
2017-04-03T23:28:35.524Z,25.85
2017-04-03T23:29:35.260Z,25.97
2017-04-03T23:30:35.040Z,23.85
2017-04-03T23:31:34.800Z,23.47
2017-04-03T23:32:34.504Z,23.93
2017-04-03T23:33:34.290Z,22.90
2017-04-03T23:34:34.001Z,21.97
2017-04-03T23:35:33.666Z,23.45
2017-04-03T23:36:33.411Z,21.38
2017-04-03T23:37:33.280Z,21.60
2017-04-03T23:38:33.016Z,23.05
2017-04-03T23:39:32.789Z,21.90
2017-04-03T23:40:32.752Z,21.08
2017-04-03T23:41:32.553Z,22.12
2017-04-03T23:42:32.305Z,21.00
2017-04-03T23:43:32.021Z,19.82
2017-04-03T23:44:31.688Z,22.65
2017-04-03T23:45:31.439Z,23.83
2017-04-03T23:46:31.954Z,23.52
2017-04-03T23:47:32.425Z,23.27
2017-04-03T23:48:32.144Z,22.83
2017-04-03T23:49:31.918Z,22.65
2017-04-03T23:50:31.643Z,21.58
2017-04-03T23:51:31.438Z,22.97
2017-04-03T23:52:31.150Z,20.63
2017-04-03T23:53:30.869Z,21.90
2017-04-03T23:54:31.326Z,21.48
2017-04-03T23:55:31.026Z,22.28
2017-04-03T23:56:30.834Z,20.55
2017-04-03T23:57:30.591Z,20.70
2017-04-03T23:58:30.300Z,20.72
2017-04-03T23:59:30.004Z,21.53
